sensor_id;sensor_type;location;lat;lon;timestamp;temperature;humidity
16881;DHT22;8557;52.068;5.198;2022-12-16T00:00:29;-0.50;99.90
16881;DHT22;8557;52.068;5.198;2022-12-16T00:02:58;-0.50;99.90
16881;DHT22;8557;52.068;5.198;2022-12-16T00:05:26;-0.50;99.90
16881;DHT22;8557;52.068;5.198;2022-12-16T00:07:53;-0.60;99.90
16881;DHT22;8557;52.068;5.198;2022-12-16T00:10:20;-0.70;99.90
16881;DHT22;8557;52.068;5.198;2022-12-16T00:12:47;-0.70;99.90
16881;DHT22;8557;52.068;5.198;2022-12-16T00:15:14;-0.70;99.90
16881;DHT22;8557;52.068;5.198;2022-12-16T00:17:42;-0.70;99.90
16881;DHT22;8557;52.068;5.198;2022-12-16T00:20:10;-0.70;99.90
16881;DHT22;8557;52.068;5.198;2022-12-16T00:22:37;-0.60;99.90
16881;DHT22;8557;52.068;5.198;2022-12-16T00:25:04;-0.70;99.90
16881;DHT22;8557;52.068;5.198;2022-12-16T00:27:31;-0.80;99.90
16881;DHT22;8557;52.068;5.198;2022-12-16T00:29:59;-0.80;99.90
16881;DHT22;8557;52.068;5.198;2022-12-16T00:32:25;-0.80;99.90
16881;DHT22;8557;52.068;5.198;2022-12-16T00:34:53;-0.70;99.90
16881;DHT22;8557;52.068;5.198;2022-12-16T00:37:20;-0.70;99.90
16881;DHT22;8557;52.068;5.198;2022-12-16T00:39:47;-0.70;99.90
16881;DHT22;8557;52.068;5.198;2022-12-16T00:42:14;-0.70;99.90
16881;DHT22;8557;52.068;5.198;2022-12-16T00:44:40;-0.50;99.90
16881;DHT22;8557;52.068;5.198;2022-12-16T00:47:07;-0.60;99.90
16881;DHT22;8557;52.068;5.198;2022-12-16T00:49:34;-0.60;99.90
16881;DHT22;8557;52.068;5.198;2022-12-16T00:52:03;-0.60;99.90
16881;DHT22;8557;52.068;5.198;2022-12-16T00:54:30;-0.60;99.90
16881;DHT22;8557;52.068;5.198;2022-12-16T00:56:56;-0.70;99.90
16881;DHT22;8557;52.068;5.198;2022-12-16T00:59:23;-0.70;99.90
16881;DHT22;8557;52.068;5.198;2022-12-16T01:01:50;-0.80;99.90
16881;DHT22;8557;52.068;5.198;2022-12-16T01:04:17;-0.80;99.90
16881;DHT22;8557;52.068;5.198;2022-12-16T01:06:43;-0.70;99.90
16881;DHT22;8557;52.068;5.198;2022-12-16T01:09:13;-0.60;99.90
16881;DHT22;8557;52.068;5.198;2022-12-16T01:11:39;-0.50;99.90
16881;DHT22;8557;52.068;5.198;2022-12-16T01:14:06;-0.50;99.90
16881;DHT22;8557;52.068;5.198;2022-12-16T01:16:33;-0.40;99.90
16881;DHT22;8557;52.068;5.198;2022-12-16T01:19:00;-0.40;99.90
16881;DHT22;8557;52.068;5.198;2022-12-16T01:21:27;-0.40;99.90
16881;DHT22;8557;52.068;5.198;2022-12-16T01:23:54;-0.30;99.90
16881;DHT22;8557;52.068;5.198;2022-12-16T01:26:22;-0.30;99.90
16881;DHT22;8557;52.068;5.198;2022-12-16T01:28:49;-0.30;99.90
16881;DHT22;8557;52.068;5.198;2022-12-16T01:31:16;-0.40;99.90
16881;DHT22;8557;52.068;5.198;2022-12-16T01:33:43;-0.40;99.90
16881;DHT22;8557;52.068;5.198;2022-12-16T01:36:10;-0.50;99.90
16881;DHT22;8557;52.068;5.198;2022-12-16T01:38:37;-0.40;99.90
16881;DHT22;8557;52.068;5.198;2022-12-16T01:41:04;-0.30;99.90
16881;DHT22;8557;52.068;5.198;2022-12-16T01:43:34;-0.20;99.90
16881;DHT22;8557;52.068;5.198;2022-12-16T01:46:06;-0.20;99.90
16881;DHT22;8557;52.068;5.198;2022-12-16T01:48:38;0.00;99.90
16881;DHT22;8557;52.068;5.198;2022-12-16T01:51:10;0.10;99.90
16881;DHT22;8557;52.068;5.198;2022-12-16T01:53:41;0.20;99.90
16881;DHT22;8557;52.068;5.198;2022-12-16T01:56:09;0.20;99.90
16881;DHT22;8557;52.068;5.198;2022-12-16T01:58:40;0.20;99.90
16881;DHT22;8557;52.068;5.198;2022-12-16T02:01:07;0.20;99.90
16881;DHT22;8557;52.068;5.198;2022-12-16T02:03:35;0.20;99.90
16881;DHT22;8557;52.068;5.198;2022-12-16T02:06:03;0.20;99.90
16881;DHT22;8557;52.068;5.198;2022-12-16T02:08:31;0.20;99.90
16881;DHT22;8557;52.068;5.198;2022-12-16T02:11:10;0.30;99.90
16881;DHT22;8557;52.068;5.198;2022-12-16T02:13:51;0.30;99.90
16881;DHT22;8557;52.068;5.198;2022-12-16T02:16:25;0.30;99.90
16881;DHT22;8557;52.068;5.198;2022-12-16T02:18:59;0.30;99.90
16881;DHT22;8557;52.068;5.198;2022-12-16T02:21:46;0.40;99.90
16881;DHT22;8557;52.068;5.198;2022-12-16T02:24:31;0.50;99.90
16881;DHT22;8557;52.068;5.198;2022-12-16T02:30:27;0.80;99.90
16881;DHT22;8557;52.068;5.198;2022-12-16T02:33:03;0.80;99.90
16881;DHT22;8557;52.068;5.198;2022-12-16T02:35:34;0.80;99.90
16881;DHT22;8557;52.068;5.198;2022-12-16T02:38:13;0.80;99.90
16881;DHT22;8557;52.068;5.198;2022-12-16T02:40:47;0.90;99.90
16881;DHT22;8557;52.068;5.198;2022-12-16T02:43:25;1.00;99.90
16881;DHT22;8557;52.068;5.198;2022-12-16T02:45:58;1.10;99.90
16881;DHT22;8557;52.068;5.198;2022-12-16T02:48:26;1.10;99.90
16881;DHT22;8557;52.068;5.198;2022-12-16T02:50:53;1.10;99.90
16881;DHT22;8557;52.068;5.198;2022-12-16T02:53:20;1.00;99.90
16881;DHT22;8557;52.068;5.198;2022-12-16T02:55:51;0.90;99.90
16881;DHT22;8557;52.068;5.198;2022-12-16T02:58:23;0.90;99.90
16881;DHT22;8557;52.068;5.198;2022-12-16T03:00:59;0.90;99.90
16881;DHT22;8557;52.068;5.198;2022-12-16T03:03:33;1.00;99.90
16881;DHT22;8557;52.068;5.198;2022-12-16T03:06:03;1.00;99.90
16881;DHT22;8557;52.068;5.198;2022-12-16T03:08:33;0.90;99.90
16881;DHT22;8557;52.068;5.198;2022-12-16T03:11:03;0.90;99.90
16881;DHT22;8557;52.068;5.198;2022-12-16T03:13:33;0.80;99.90
16881;DHT22;8557;52.068;5.198;2022-12-16T03:16:05;0.80;99.90
16881;DHT22;8557;52.068;5.198;2022-12-16T03:18:33;0.80;99.90
16881;DHT22;8557;52.068;5.198;2022-12-16T03:21:03;0.80;99.90
16881;DHT22;8557;52.068;5.198;2022-12-16T03:23:35;0.80;99.90
16881;DHT22;8557;52.068;5.198;2022-12-16T03:26:07;0.80;99.90
16881;DHT22;8557;52.068;5.198;2022-12-16T03:28:42;0.80;99.90
16881;DHT22;8557;52.068;5.198;2022-12-16T03:31:16;0.80;99.90
16881;DHT22;8557;52.068;5.198;2022-12-16T03:33:48;0.80;99.90
16881;DHT22;8557;52.068;5.198;2022-12-16T03:36:20;0.90;99.90
16881;DHT22;8557;52.068;5.198;2022-12-16T03:38:49;0.90;99.90
16881;DHT22;8557;52.068;5.198;2022-12-16T03:41:19;0.90;99.90
16881;DHT22;8557;52.068;5.198;2022-12-16T03:43:47;0.90;99.90
16881;DHT22;8557;52.068;5.198;2022-12-16T03:46:16;0.90;99.90
16881;DHT22;8557;52.068;5.198;2022-12-16T03:48:48;0.90;99.90
16881;DHT22;8557;52.068;5.198;2022-12-16T03:51:15;0.90;99.90
16881;DHT22;8557;52.068;5.198;2022-12-16T03:53:42;0.90;99.90
16881;DHT22;8557;52.068;5.198;2022-12-16T03:56:09;0.90;99.90
16881;DHT22;8557;52.068;5.198;2022-12-16T03:58:36;0.90;99.90
16881;DHT22;8557;52.068;5.198;2022-12-16T04:01:04;0.90;99.90
16881;DHT22;8557;52.068;5.198;2022-12-16T04:03:33;0.80;99.90
16881;DHT22;8557;52.068;5.198;2022-12-16T04:06:00;0.90;99.90
16881;DHT22;8557;52.068;5.198;2022-12-16T04:08:26;0.90;99.90
16881;DHT22;8557;52.068;5.198;2022-12-16T04:10:53;0.80;99.90
16881;DHT22;8557;52.068;5.198;2022-12-16T04:13:38;0.80;99.90
16881;DHT22;8557;52.068;5.198;2022-12-16T04:16:22;0.80;99.90
16881;DHT22;8557;52.068;5.198;2022-12-16T04:19:19;0.80;99.90
16881;DHT22;8557;52.068;5.198;2022-12-16T04:22:04;0.80;99.90
16881;DHT22;8557;52.068;5.198;2022-12-16T04:24:49;0.80;99.90
16881;DHT22;8557;52.068;5.198;2022-12-16T04:27:15;0.80;99.90
16881;DHT22;8557;52.068;5.198;2022-12-16T04:29:53;0.70;99.90
16881;DHT22;8557;52.068;5.198;2022-12-16T04:32:38;0.60;99.90
16881;DHT22;8557;52.068;5.198;2022-12-16T04:35:24;0.60;99.90
16881;DHT22;8557;52.068;5.198;2022-12-16T04:38:08;0.60;99.90
16881;DHT22;8557;52.068;5.198;2022-12-16T04:40:52;0.60;99.90
16881;DHT22;8557;52.068;5.198;2022-12-16T04:43:36;0.70;99.90
16881;DHT22;8557;52.068;5.198;2022-12-16T04:46:21;0.50;99.90
16881;DHT22;8557;52.068;5.198;2022-12-16T04:49:05;0.40;99.90
16881;DHT22;8557;52.068;5.198;2022-12-16T04:51:50;0.30;99.90
16881;DHT22;8557;52.068;5.198;2022-12-16T04:54:35;0.10;99.90
16881;DHT22;8557;52.068;5.198;2022-12-16T04:57:19;0.00;99.90
16881;DHT22;8557;52.068;5.198;2022-12-16T05:00:04;-0.20;99.90
16881;DHT22;8557;52.068;5.198;2022-12-16T05:02:49;-0.30;99.90
16881;DHT22;8557;52.068;5.198;2022-12-16T05:05:33;-0.30;99.90
16881;DHT22;8557;52.068;5.198;2022-12-16T05:08:19;-0.30;99.90
16881;DHT22;8557;52.068;5.198;2022-12-16T05:11:03;-0.50;99.90
16881;DHT22;8557;52.068;5.198;2022-12-16T05:13:47;-0.60;99.90
16881;DHT22;8557;52.068;5.198;2022-12-16T05:16:32;-0.70;99.90
16881;DHT22;8557;52.068;5.198;2022-12-16T05:19:16;-0.60;99.90
16881;DHT22;8557;52.068;5.198;2022-12-16T05:22:00;-0.50;99.90
16881;DHT22;8557;52.068;5.198;2022-12-16T05:24:45;-0.60;99.90
16881;DHT22;8557;52.068;5.198;2022-12-16T05:27:30;-0.70;99.90
16881;DHT22;8557;52.068;5.198;2022-12-16T05:30:14;-0.60;99.90
16881;DHT22;8557;52.068;5.198;2022-12-16T05:32:55;-0.60;99.90
16881;DHT22;8557;52.068;5.198;2022-12-16T05:35:40;-0.80;99.90
16881;DHT22;8557;52.068;5.198;2022-12-16T05:38:24;-0.90;99.90
16881;DHT22;8557;52.068;5.198;2022-12-16T05:41:09;-0.90;99.90
16881;DHT22;8557;52.068;5.198;2022-12-16T05:43:53;-1.00;99.90
16881;DHT22;8557;52.068;5.198;2022-12-16T05:46:37;-1.00;99.90
16881;DHT22;8557;52.068;5.198;2022-12-16T05:49:22;-1.10;99.90
16881;DHT22;8557;52.068;5.198;2022-12-16T05:52:06;-1.30;99.90
16881;DHT22;8557;52.068;5.198;2022-12-16T05:54:50;-1.30;99.90
16881;DHT22;8557;52.068;5.198;2022-12-16T05:57:34;-1.40;99.90
16881;DHT22;8557;52.068;5.198;2022-12-16T06:00:19;-1.40;99.90
16881;DHT22;8557;52.068;5.198;2022-12-16T06:03:03;-1.50;99.90
16881;DHT22;8557;52.068;5.198;2022-12-16T06:05:48;-1.50;99.90
16881;DHT22;8557;52.068;5.198;2022-12-16T06:08:32;-1.60;99.90
16881;DHT22;8557;52.068;5.198;2022-12-16T06:11:15;-1.60;99.90
16881;DHT22;8557;52.068;5.198;2022-12-16T06:14:01;-1.60;99.90
16881;DHT22;8557;52.068;5.198;2022-12-16T06:16:46;-1.50;99.90
16881;DHT22;8557;52.068;5.198;2022-12-16T06:19:30;-1.50;99.90
16881;DHT22;8557;52.068;5.198;2022-12-16T06:22:23;-1.50;99.90
16881;DHT22;8557;52.068;5.198;2022-12-16T06:25:07;-1.60;99.90
16881;DHT22;8557;52.068;5.198;2022-12-16T06:27:52;-1.70;99.90
16881;DHT22;8557;52.068;5.198;2022-12-16T06:30:38;-1.70;99.90
16881;DHT22;8557;52.068;5.198;2022-12-16T06:33:22;-1.70;99.90
16881;DHT22;8557;52.068;5.198;2022-12-16T06:36:07;-1.60;99.90
16881;DHT22;8557;52.068;5.198;2022-12-16T06:38:51;-1.60;99.90
16881;DHT22;8557;52.068;5.198;2022-12-16T06:41:35;-1.60;99.90
16881;DHT22;8557;52.068;5.198;2022-12-16T06:44:20;-1.50;99.90
16881;DHT22;8557;52.068;5.198;2022-12-16T06:47:05;-1.50;99.90
16881;DHT22;8557;52.068;5.198;2022-12-16T06:49:49;-1.60;99.90
16881;DHT22;8557;52.068;5.198;2022-12-16T06:52:34;-1.60;99.90
16881;DHT22;8557;52.068;5.198;2022-12-16T06:55:18;-1.50;99.90
16881;DHT22;8557;52.068;5.198;2022-12-16T06:58:02;-1.50;99.90
16881;DHT22;8557;52.068;5.198;2022-12-16T07:00:47;-1.40;99.90
16881;DHT22;8557;52.068;5.198;2022-12-16T07:03:32;-1.40;99.90
16881;DHT22;8557;52.068;5.198;2022-12-16T07:06:17;-1.50;99.90
16881;DHT22;8557;52.068;5.198;2022-12-16T07:09:01;-1.60;99.90
16881;DHT22;8557;52.068;5.198;2022-12-16T07:11:45;-1.60;99.90
16881;DHT22;8557;52.068;5.198;2022-12-16T07:14:30;-1.60;99.90
16881;DHT22;8557;52.068;5.198;2022-12-16T07:17:14;-1.70;99.90
16881;DHT22;8557;52.068;5.198;2022-12-16T07:19:59;-1.70;99.90
16881;DHT22;8557;52.068;5.198;2022-12-16T07:22:44;-1.60;99.90
16881;DHT22;8557;52.068;5.198;2022-12-16T07:25:29;-1.60;99.90
16881;DHT22;8557;52.068;5.198;2022-12-16T07:28:14;-1.50;99.90
16881;DHT22;8557;52.068;5.198;2022-12-16T07:30:58;-1.40;99.90
16881;DHT22;8557;52.068;5.198;2022-12-16T07:33:42;-1.30;99.90
16881;DHT22;8557;52.068;5.198;2022-12-16T07:36:28;-1.10;99.90
16881;DHT22;8557;52.068;5.198;2022-12-16T07:39:15;-1.00;99.90
16881;DHT22;8557;52.068;5.198;2022-12-16T07:41:59;-1.10;99.90
16881;DHT22;8557;52.068;5.198;2022-12-16T07:44:43;-1.20;99.90
16881;DHT22;8557;52.068;5.198;2022-12-16T07:47:27;-1.30;99.90
16881;DHT22;8557;52.068;5.198;2022-12-16T07:50:12;-1.40;99.90
16881;DHT22;8557;52.068;5.198;2022-12-16T07:52:58;-1.30;99.90
16881;DHT22;8557;52.068;5.198;2022-12-16T07:55:43;-1.30;99.90
16881;DHT22;8557;52.068;5.198;2022-12-16T07:58:28;-1.20;99.90
16881;DHT22;8557;52.068;5.198;2022-12-16T08:01:13;-1.20;99.90
16881;DHT22;8557;52.068;5.198;2022-12-16T08:03:58;-1.30;99.90
16881;DHT22;8557;52.068;5.198;2022-12-16T08:06:42;-1.30;99.90
16881;DHT22;8557;52.068;5.198;2022-12-16T08:11:59;-1.20;99.90
16881;DHT22;8557;52.068;5.198;2022-12-16T08:14:43;-1.10;99.90
16881;DHT22;8557;52.068;5.198;2022-12-16T08:17:27;-1.10;99.90
16881;DHT22;8557;52.068;5.198;2022-12-16T08:20:11;-1.10;99.90
16881;DHT22;8557;52.068;5.198;2022-12-16T08:22:56;-1.00;99.90
16881;DHT22;8557;52.068;5.198;2022-12-16T08:25:40;-0.90;99.90
16881;DHT22;8557;52.068;5.198;2022-12-16T08:28:25;-0.80;99.90
16881;DHT22;8557;52.068;5.198;2022-12-16T08:31:09;-0.70;99.90
16881;DHT22;8557;52.068;5.198;2022-12-16T08:33:53;-0.60;99.90
16881;DHT22;8557;52.068;5.198;2022-12-16T08:36:37;-0.50;99.90
16881;DHT22;8557;52.068;5.198;2022-12-16T08:39:21;-0.50;99.90
16881;DHT22;8557;52.068;5.198;2022-12-16T08:42:05;-0.40;99.90
16881;DHT22;8557;52.068;5.198;2022-12-16T08:44:51;-0.40;99.90
16881;DHT22;8557;52.068;5.198;2022-12-16T08:47:35;-0.50;99.90
16881;DHT22;8557;52.068;5.198;2022-12-16T08:50:34;-0.50;99.90
16881;DHT22;8557;52.068;5.198;2022-12-16T08:53:18;-0.30;99.90
16881;DHT22;8557;52.068;5.198;2022-12-16T08:56:03;-0.20;99.90
16881;DHT22;8557;52.068;5.198;2022-12-16T08:58:47;-0.20;99.90
16881;DHT22;8557;52.068;5.198;2022-12-16T09:01:33;-0.10;99.90
16881;DHT22;8557;52.068;5.198;2022-12-16T09:04:17;-0.20;99.90
16881;DHT22;8557;52.068;5.198;2022-12-16T09:07:01;-0.10;99.90
16881;DHT22;8557;52.068;5.198;2022-12-16T09:09:46;0.00;99.90
16881;DHT22;8557;52.068;5.198;2022-12-16T09:12:30;0.00;99.90
16881;DHT22;8557;52.068;5.198;2022-12-16T09:15:14;0.10;99.90
16881;DHT22;8557;52.068;5.198;2022-12-16T09:18:00;0.20;99.90
16881;DHT22;8557;52.068;5.198;2022-12-16T09:20:45;0.30;99.90
16881;DHT22;8557;52.068;5.198;2022-12-16T09:23:29;0.40;99.90
16881;DHT22;8557;52.068;5.198;2022-12-16T09:26:13;0.50;99.90
16881;DHT22;8557;52.068;5.198;2022-12-16T09:28:57;0.50;99.90
16881;DHT22;8557;52.068;5.198;2022-12-16T09:31:42;0.50;99.90
16881;DHT22;8557;52.068;5.198;2022-12-16T09:34:28;0.60;99.90
16881;DHT22;8557;52.068;5.198;2022-12-16T09:37:11;0.60;99.90
16881;DHT22;8557;52.068;5.198;2022-12-16T09:39:55;0.70;99.90
16881;DHT22;8557;52.068;5.198;2022-12-16T09:42:47;0.70;99.90
16881;DHT22;8557;52.068;5.198;2022-12-16T09:45:38;0.70;99.90
16881;DHT22;8557;52.068;5.198;2022-12-16T09:48:30;0.70;99.90
16881;DHT22;8557;52.068;5.198;2022-12-16T09:51:19;0.80;99.90
16881;DHT22;8557;52.068;5.198;2022-12-16T09:54:04;0.90;99.90
16881;DHT22;8557;52.068;5.198;2022-12-16T09:56:49;0.90;99.90
16881;DHT22;8557;52.068;5.198;2022-12-16T09:59:36;0.90;99.90
16881;DHT22;8557;52.068;5.198;2022-12-16T10:02:22;0.90;99.90
16881;DHT22;8557;52.068;5.198;2022-12-16T10:05:09;0.90;99.90
16881;DHT22;8557;52.068;5.198;2022-12-16T10:08:02;1.10;99.90
16881;DHT22;8557;52.068;5.198;2022-12-16T10:11:06;1.20;99.90
16881;DHT22;8557;52.068;5.198;2022-12-16T10:13:57;1.30;99.90
16881;DHT22;8557;52.068;5.198;2022-12-16T10:16:48;1.50;99.90
16881;DHT22;8557;52.068;5.198;2022-12-16T10:19:53;1.50;99.90
16881;DHT22;8557;52.068;5.198;2022-12-16T10:22:43;1.60;99.90
16881;DHT22;8557;52.068;5.198;2022-12-16T10:25:37;1.70;99.90
16881;DHT22;8557;52.068;5.198;2022-12-16T10:28:33;1.80;99.90
16881;DHT22;8557;52.068;5.198;2022-12-16T10:31:19;1.80;99.90
16881;DHT22;8557;52.068;5.198;2022-12-16T10:34:09;1.90;99.90
16881;DHT22;8557;52.068;5.198;2022-12-16T10:36:55;2.00;99.90
16881;DHT22;8557;52.068;5.198;2022-12-16T10:39:43;2.20;99.90
16881;DHT22;8557;52.068;5.198;2022-12-16T10:42:32;2.20;99.90
16881;DHT22;8557;52.068;5.198;2022-12-16T10:45:21;2.20;99.90
16881;DHT22;8557;52.068;5.198;2022-12-16T10:48:07;2.30;99.90
16881;DHT22;8557;52.068;5.198;2022-12-16T10:50:52;2.40;99.90
16881;DHT22;8557;52.068;5.198;2022-12-16T10:53:36;2.50;99.90
16881;DHT22;8557;52.068;5.198;2022-12-16T10:56:36;2.60;99.90
16881;DHT22;8557;52.068;5.198;2022-12-16T10:59:23;2.70;99.90
16881;DHT22;8557;52.068;5.198;2022-12-16T11:02:19;2.70;99.90
16881;DHT22;8557;52.068;5.198;2022-12-16T11:05:21;2.90;99.90
16881;DHT22;8557;52.068;5.198;2022-12-16T11:08:22;3.00;99.90
16881;DHT22;8557;52.068;5.198;2022-12-16T11:11:12;3.10;99.90
16881;DHT22;8557;52.068;5.198;2022-12-16T11:14:14;3.20;99.90
16881;DHT22;8557;52.068;5.198;2022-12-16T11:17:14;3.20;99.90
16881;DHT22;8557;52.068;5.198;2022-12-16T11:20:11;3.30;99.90
16881;DHT22;8557;52.068;5.198;2022-12-16T11:23:17;3.30;99.90
16881;DHT22;8557;52.068;5.198;2022-12-16T11:26:07;3.20;99.90
16881;DHT22;8557;52.068;5.198;2022-12-16T11:29:02;3.20;99.90
16881;DHT22;8557;52.068;5.198;2022-12-16T11:31:50;3.10;99.90
16881;DHT22;8557;52.068;5.198;2022-12-16T11:34:39;3.20;99.90
16881;DHT22;8557;52.068;5.198;2022-12-16T11:37:26;3.30;99.90
16881;DHT22;8557;52.068;5.198;2022-12-16T11:40:13;3.30;99.90
16881;DHT22;8557;52.068;5.198;2022-12-16T11:43:00;3.40;99.90
16881;DHT22;8557;52.068;5.198;2022-12-16T11:45:45;3.50;99.90
16881;DHT22;8557;52.068;5.198;2022-12-16T11:48:35;3.60;99.90
16881;DHT22;8557;52.068;5.198;2022-12-16T11:51:24;3.70;99.90
16881;DHT22;8557;52.068;5.198;2022-12-16T11:54:16;4.00;99.90
16881;DHT22;8557;52.068;5.198;2022-12-16T11:57:03;4.10;99.90
16881;DHT22;8557;52.068;5.198;2022-12-16T11:59:52;4.20;99.90
16881;DHT22;8557;52.068;5.198;2022-12-16T12:02:43;4.20;99.90
16881;DHT22;8557;52.068;5.198;2022-12-16T12:05:33;4.20;99.90
16881;DHT22;8557;52.068;5.198;2022-12-16T12:08:24;4.30;99.90
16881;DHT22;8557;52.068;5.198;2022-12-16T12:11:18;4.30;99.90
16881;DHT22;8557;52.068;5.198;2022-12-16T12:14:13;4.50;99.90
16881;DHT22;8557;52.068;5.198;2022-12-16T12:17:07;4.60;99.90
16881;DHT22;8557;52.068;5.198;2022-12-16T12:20:10;4.80;99.90
16881;DHT22;8557;52.068;5.198;2022-12-16T12:23:03;4.80;99.90
16881;DHT22;8557;52.068;5.198;2022-12-16T12:25:53;5.00;99.90
16881;DHT22;8557;52.068;5.198;2022-12-16T12:28:46;5.10;99.90
16881;DHT22;8557;52.068;5.198;2022-12-16T12:31:50;5.10;99.90
16881;DHT22;8557;52.068;5.198;2022-12-16T12:34:41;5.30;99.90
16881;DHT22;8557;52.068;5.198;2022-12-16T12:37:35;5.50;99.90
16881;DHT22;8557;52.068;5.198;2022-12-16T12:40:37;5.60;99.90
16881;DHT22;8557;52.068;5.198;2022-12-16T12:43:35;5.60;99.90
16881;DHT22;8557;52.068;5.198;2022-12-16T12:46:25;5.40;99.90
16881;DHT22;8557;52.068;5.198;2022-12-16T12:49:18;5.60;99.90
16881;DHT22;8557;52.068;5.198;2022-12-16T12:52:11;5.80;99.90
16881;DHT22;8557;52.068;5.198;2022-12-16T12:55:01;5.70;99.90
16881;DHT22;8557;52.068;5.198;2022-12-16T12:57:48;5.60;99.90
16881;DHT22;8557;52.068;5.198;2022-12-16T13:00:52;5.60;99.90
16881;DHT22;8557;52.068;5.198;2022-12-16T13:03:40;5.50;99.90
16881;DHT22;8557;52.068;5.198;2022-12-16T13:06:26;5.40;99.90
16881;DHT22;8557;52.068;5.198;2022-12-16T13:09:23;5.40;99.90
16881;DHT22;8557;52.068;5.198;2022-12-16T13:12:27;5.20;99.90
16881;DHT22;8557;52.068;5.198;2022-12-16T13:15:19;5.20;99.90
16881;DHT22;8557;52.068;5.198;2022-12-16T13:18:21;5.20;99.90
16881;DHT22;8557;52.068;5.198;2022-12-16T13:21:44;5.20;99.90
16881;DHT22;8557;52.068;5.198;2022-12-16T13:24:48;5.20;99.90
16881;DHT22;8557;52.068;5.198;2022-12-16T13:27:49;5.30;99.90
16881;DHT22;8557;52.068;5.198;2022-12-16T13:30:35;5.20;99.90
16881;DHT22;8557;52.068;5.198;2022-12-16T13:33:24;5.10;99.90
16881;DHT22;8557;52.068;5.198;2022-12-16T13:36:32;5.00;99.90
16881;DHT22;8557;52.068;5.198;2022-12-16T13:39:23;5.00;99.90
16881;DHT22;8557;52.068;5.198;2022-12-16T13:45:31;5.00;99.90
16881;DHT22;8557;52.068;5.198;2022-12-16T13:48:33;5.00;99.90
16881;DHT22;8557;52.068;5.198;2022-12-16T13:51:55;5.00;99.90
16881;DHT22;8557;52.068;5.198;2022-12-16T13:54:45;5.00;99.90
16881;DHT22;8557;52.068;5.198;2022-12-16T13:57:36;4.90;99.90
16881;DHT22;8557;52.068;5.198;2022-12-16T14:00:23;5.00;99.90
16881;DHT22;8557;52.068;5.198;2022-12-16T14:03:19;4.90;99.90
16881;DHT22;8557;52.068;5.198;2022-12-16T14:06:11;4.80;99.90
16881;DHT22;8557;52.068;5.198;2022-12-16T14:08:58;4.60;99.90
16881;DHT22;8557;52.068;5.198;2022-12-16T14:11:47;4.80;99.90
16881;DHT22;8557;52.068;5.198;2022-12-16T14:14:39;4.80;99.90
16881;DHT22;8557;52.068;5.198;2022-12-16T14:17:30;4.90;99.90
16881;DHT22;8557;52.068;5.198;2022-12-16T14:20:21;4.80;99.90
16881;DHT22;8557;52.068;5.198;2022-12-16T14:23:19;4.80;99.90
16881;DHT22;8557;52.068;5.198;2022-12-16T14:26:04;4.70;99.90
16881;DHT22;8557;52.068;5.198;2022-12-16T14:28:49;4.60;99.90
16881;DHT22;8557;52.068;5.198;2022-12-16T14:31:35;4.50;99.90
16881;DHT22;8557;52.068;5.198;2022-12-16T14:34:23;4.50;99.90
16881;DHT22;8557;52.068;5.198;2022-12-16T14:37:15;4.50;99.90
16881;DHT22;8557;52.068;5.198;2022-12-16T14:40:03;4.40;99.90
16881;DHT22;8557;52.068;5.198;2022-12-16T14:42:51;4.30;99.90
16881;DHT22;8557;52.068;5.198;2022-12-16T14:45:37;4.20;99.90
16881;DHT22;8557;52.068;5.198;2022-12-16T14:48:25;4.10;99.90
16881;DHT22;8557;52.068;5.198;2022-12-16T14:51:27;4.00;99.90
16881;DHT22;8557;52.068;5.198;2022-12-16T14:54:23;3.90;99.90
16881;DHT22;8557;52.068;5.198;2022-12-16T14:57:15;3.80;99.90
16881;DHT22;8557;52.068;5.198;2022-12-16T15:00:17;3.70;99.90
16881;DHT22;8557;52.068;5.198;2022-12-16T15:03:06;3.50;99.90
16881;DHT22;8557;52.068;5.198;2022-12-16T15:05:54;3.40;99.90
16881;DHT22;8557;52.068;5.198;2022-12-16T15:08:46;3.20;99.90
16881;DHT22;8557;52.068;5.198;2022-12-16T15:11:32;3.00;99.90
16881;DHT22;8557;52.068;5.198;2022-12-16T15:14:24;2.90;99.90
16881;DHT22;8557;52.068;5.198;2022-12-16T15:17:18;2.80;99.90
16881;DHT22;8557;52.068;5.198;2022-12-16T15:20:04;2.80;99.90
16881;DHT22;8557;52.068;5.198;2022-12-16T15:22:49;2.80;99.90
16881;DHT22;8557;52.068;5.198;2022-12-16T15:25:34;2.80;99.90
16881;DHT22;8557;52.068;5.198;2022-12-16T15:28:24;2.60;99.90
16881;DHT22;8557;52.068;5.198;2022-12-16T15:31:20;2.60;99.90
16881;DHT22;8557;52.068;5.198;2022-12-16T15:34:28;2.40;99.90
16881;DHT22;8557;52.068;5.198;2022-12-16T15:37:22;2.20;99.90
16881;DHT22;8557;52.068;5.198;2022-12-16T15:40:23;2.00;99.90
16881;DHT22;8557;52.068;5.198;2022-12-16T15:43:23;1.90;99.90
16881;DHT22;8557;52.068;5.198;2022-12-16T15:46:18;1.90;99.90
16881;DHT22;8557;52.068;5.198;2022-12-16T15:49:03;1.80;99.90
16881;DHT22;8557;52.068;5.198;2022-12-16T15:51:59;1.80;99.90
16881;DHT22;8557;52.068;5.198;2022-12-16T15:54:51;1.80;99.90
16881;DHT22;8557;52.068;5.198;2022-12-16T15:57:36;1.60;99.90
16881;DHT22;8557;52.068;5.198;2022-12-16T16:00:23;1.60;99.90
16881;DHT22;8557;52.068;5.198;2022-12-16T16:03:25;1.70;99.90
16881;DHT22;8557;52.068;5.198;2022-12-16T16:06:21;1.50;99.90
16881;DHT22;8557;52.068;5.198;2022-12-16T16:09:18;1.40;99.90
16881;DHT22;8557;52.068;5.198;2022-12-16T16:12:04;1.30;99.90
16881;DHT22;8557;52.068;5.198;2022-12-16T16:14:48;1.20;99.90
16881;DHT22;8557;52.068;5.198;2022-12-16T16:17:33;1.20;99.90
16881;DHT22;8557;52.068;5.198;2022-12-16T16:20:19;1.10;99.90
16881;DHT22;8557;52.068;5.198;2022-12-16T16:23:03;0.90;99.90
16881;DHT22;8557;52.068;5.198;2022-12-16T16:25:48;0.90;99.90
16881;DHT22;8557;52.068;5.198;2022-12-16T16:28:33;0.80;99.90
16881;DHT22;8557;52.068;5.198;2022-12-16T16:31:18;0.70;99.90
16881;DHT22;8557;52.068;5.198;2022-12-16T16:34:02;0.70;99.90
16881;DHT22;8557;52.068;5.198;2022-12-16T16:36:52;0.70;99.90
16881;DHT22;8557;52.068;5.198;2022-12-16T16:39:37;0.60;99.90
16881;DHT22;8557;52.068;5.198;2022-12-16T16:42:22;0.50;99.90
16881;DHT22;8557;52.068;5.198;2022-12-16T16:45:07;0.40;99.90
16881;DHT22;8557;52.068;5.198;2022-12-16T16:47:53;0.30;99.90
16881;DHT22;8557;52.068;5.198;2022-12-16T16:50:46;0.20;99.90
16881;DHT22;8557;52.068;5.198;2022-12-16T16:53:32;0.20;99.90
16881;DHT22;8557;52.068;5.198;2022-12-16T16:56:17;0.20;99.90
16881;DHT22;8557;52.068;5.198;2022-12-16T16:59:01;0.20;99.90
16881;DHT22;8557;52.068;5.198;2022-12-16T17:01:47;0.20;99.90
16881;DHT22;8557;52.068;5.198;2022-12-16T17:04:32;0.20;99.90
16881;DHT22;8557;52.068;5.198;2022-12-16T17:07:17;0.20;99.90
16881;DHT22;8557;52.068;5.198;2022-12-16T17:10:03;0.10;99.90
16881;DHT22;8557;52.068;5.198;2022-12-16T17:12:47;0.20;99.90
16881;DHT22;8557;52.068;5.198;2022-12-16T17:15:35;0.10;99.90
16881;DHT22;8557;52.068;5.198;2022-12-16T17:18:20;0.00;99.90
16881;DHT22;8557;52.068;5.198;2022-12-16T17:21:05;-0.10;99.90
16881;DHT22;8557;52.068;5.198;2022-12-16T17:23:49;0.00;99.90
16881;DHT22;8557;52.068;5.198;2022-12-16T17:26:44;-0.10;99.90
16881;DHT22;8557;52.068;5.198;2022-12-16T17:29:29;-0.20;99.90
16881;DHT22;8557;52.068;5.198;2022-12-16T17:32:14;-0.20;99.90
16881;DHT22;8557;52.068;5.198;2022-12-16T17:34:58;-0.20;99.90
16881;DHT22;8557;52.068;5.198;2022-12-16T17:37:43;-0.30;99.90
16881;DHT22;8557;52.068;5.198;2022-12-16T17:40:27;-0.40;99.90
16881;DHT22;8557;52.068;5.198;2022-12-16T17:43:14;-0.30;99.90
16881;DHT22;8557;52.068;5.198;2022-12-16T17:45:59;-0.20;99.90
16881;DHT22;8557;52.068;5.198;2022-12-16T17:48:49;-0.20;99.90